Buoy 46611

sailwx.info

Track history (hours):
 
Tides and Currents Weather Stations Pressure Air Temp Water Temp Dewpoint Dewpoint Depression Visibility Wind Speed Wind Dir Waves Ship Positions

Drifting buoy 46611

Last reported at 2014-Oct-31 17:00 UTC. Time now 2014-Oct-31 23:55 UTC.
Position N 50°45' W 137°29'.

Barometer 1008.7 mb
Water temperature 12.6 ° C

Date/timePositionNaut miles runAvg speedWind from/ knotsBaromVisibWave heightAir tempDewpointWater temp
2014-Oct-31 17:00N 50°45' W 137°29'1 1.5 1008.7 12.6
2014-Oct-31 16:00N 50°44' W 137°31'1 1.3 1008.3 12.6
2014-Oct-31 15:00N 50°45' W 137°29'0 0.2 1008.4 12.6
2014-Oct-31 14:00N 50°45' W 137°29'0 0.1 1008.3 12.6
2014-Oct-31 12:00N 50°45' W 137°29'0 0.0 1007.9 12.7
2014-Oct-31 11:00N 50°45' W 137°29'1 0.9 1007.9 12.7
2014-Oct-31 10:00N 50°46' W 137°30'0 0.0 1007.7 12.7
2014-Oct-31 08:00N 50°46' W 137°30'1 1.0 1006.9 12.7
2014-Oct-31 07:00N 50°46' W 137°31'0 0.0 1006.5 12.7
2014-Oct-31 06:00N 50°46' W 137°31'0 0.4 1006.3 12.7
2014-Oct-31 05:00N 50°45' W 137°31'0 0.0 1005.7 12.7
2014-Oct-31 04:00N 50°45' W 137°31'0 0.4 1005.3 12.7
2014-Oct-31 03:00N 50°45' W 137°30'0 0.0 1004.5 12.7
2014-Oct-31 02:00N 50°45' W 137°30'0 0.2 1003.8 12.7
2014-Oct-31 01:00N 50°45' W 137°31'0 0.1 1003.2 12.7
2014-Oct-31 00:00N 50°45' W 137°31'2 1.5 1002.4 12.7
2014-Oct-30 23:00N 50°46' W 137°29'0 0.0 1002.0 12.7
2014-Oct-30 22:00N 50°46' W 137°29'0 0.3 1001.7 12.7
2014-Oct-30 21:00N 50°46' W 137°29'0 0.2 1001.6 12.7
2014-Oct-30 20:00N 50°46' W 137°29'0 0.2 1001.2 12.6
2014-Oct-30 19:00N 50°46' W 137°30'1 1.1 1001.0 12.6
2014-Oct-30 18:00N 50°46' W 137°31'0 0.0 1000.6 12.5
2014-Oct-30 17:00N 50°46' W 137°31'0 0.5 1000.1 12.5
2014-Oct-30 16:00N 50°46' W 137°31'0 0.2 1000.0 12.5
2014-Oct-30 14:00N 50°46' W 137°30'0 0.1 1000.0 12.5
2014-Oct-30 13:00N 50°46' W 137°30'0 0.0 1000.3 12.5
2014-Oct-30 12:00N 50°46' W 137°30'1 0.3 1000.7 12.5
2014-Oct-30 10:00N 50°46' W 137°31'0 0.0 1001.5 12.5
2014-Oct-30 08:00N 50°46' W 137°31'1 1.3 1002.7 12.4
2014-Oct-30 07:00N 50°47' W 137°32'1 0.6 1003.1 12.4
2014-Oct-30 06:00N 50°47' W 137°33'0 0.0 1003.1 12.5
2014-Oct-30 05:00N 50°47' W 137°33'0 0.0 1003.1 12.5
2014-Oct-30 04:00N 50°47' W 137°33'3 2.6 1003.2 12.5
2014-Oct-30 03:00N 50°46' W 137°30'0 0.4 1003.4 12.5
2014-Oct-30 02:00N 50°46' W 137°30'1 0.3 1003.5 12.5
2014-Oct-30 00:00N 50°46' W 137°28'1 1.2 1003.9 12.5
2014-Oct-29 23:00N 50°46' W 137°30'0 0.4 1004.4 12.5
2014-Oct-29 22:00N 50°46' W 137°30'0 0.5 1004.4 12.5
2014-Oct-29 21:00N 50°46' W 137°31'1 0.6 1005.2 12.5
2014-Oct-29 20:00N 50°45' W 137°30'1 1.2 1005.1 12.5
2014-Oct-29 19:00N 50°45' W 137°32'0 0.2 1005.1 12.5
2014-Oct-29 17:00N 50°45' W 137°31'1 0.6 1005.1 12.5
2014-Oct-29 16:00N 50°44' W 137°32'1 1.1 1004.9 12.5
2014-Oct-29 15:00N 50°44' W 137°30'1 1.0 1005.1 12.5
2014-Oct-29 14:00N 50°44' W 137°32'0 0.2 1005.6 12.5
2014-Oct-29 12:00N 50°44' W 137°32'1 0.7 1005.6 12.5
2014-Oct-29 11:00N 50°44' W 137°32'0 0.0 1005.9 12.5
2014-Oct-29 07:00N 50°44' W 137°32'0 0.2 1006.1 12.6
2014-Oct-29 06:00N 50°44' W 137°33'0 0.3 1006.0 12.6
2014-Oct-29 05:00N 50°43' W 137°33'2 2.1 1005.7 12.6
2014-Oct-29 04:00N 50°43' W 137°36'0 0.0 1005.2 12.6
2014-Oct-29 02:00N 50°43' W 137°36'0 0.0 1003.9 12.6
2014-Oct-29 01:00N 50°43' W 137°36'1 1.2 1003.4 12.6
2014-Oct-29 00:00N 50°42' W 137°35'1 0.5 1003.0 12.6
2014-Oct-28 22:00N 50°43' W 137°35'1 0.9 1002.0 12.7
2014-Oct-28 21:00N 50°43' W 137°36'2 0.4 1001.2 12.7
2014-Oct-28 16:00N 50°44' W 137°36'0 0.5 996.5 12.6
2014-Oct-28 15:00N 50°45' W 137°36'1 1.3 995.4 12.6
2014-Oct-28 14:00N 50°45' W 137°37'1 0.4 994.4 12.6
2014-Oct-28 12:00N 50°46' W 137°36'1 0.6 992.7 12.5
2014-Oct-28 10:00N 50°46' W 137°38'0 0.0 991.7 12.5
2014-Oct-28 08:00N 50°46' W 137°38'0 0.4 990.4 12.4
2014-Oct-28 07:00N 50°46' W 137°38'1 1.4 990.1 12.5
2014-Oct-28 06:00N 50°47' W 137°36'0 0.0 989.8 12.5
2014-Oct-28 04:00N 50°47' W 137°36'1 0.3 989.2 12.5
2014-Oct-28 02:00N 50°46' W 137°37'1 0.8 988.5 12.5
2014-Oct-28 01:00N 50°47' W 137°36'0 0.2 988.7 12.5
2014-Oct-28 00:00N 50°47' W 137°35'0 0.4 988.9 12.5
2014-Oct-27 23:00N 50°47' W 137°35'0 0.0 989.5 12.5
2014-Oct-27 22:00N 50°47' W 137°35'1 1.0 990.0 12.5
2014-Oct-27 21:00N 50°47' W 137°36'1 0.6 990.7 12.5
2014-Oct-27 19:00N 50°46' W 137°36'0 0.0 991.6 12.5
2014-Oct-27 18:00N 50°46' W 137°36'0 0.0 991.8 12.5
2014-Oct-27 17:00N 50°46' W 137°36'1 0.7 992.1 12.5
2014-Oct-27 16:00N 50°45' W 137°36'0 0.1 992.1 12.5
2014-Oct-27 15:00N 50°45' W 137°36'1 0.5 992.3 12.5
2014-Oct-27 14:00N 50°45' W 137°35'2 1.5 993.4 12.5
2014-Oct-27 13:00N 50°44' W 137°33'0 0.3 994.9 12.6
2014-Oct-27 12:00N 50°44' W 137°33'4 4.4 996.9 12.6
2014-Oct-27 11:00N 50°40' W 137°30'4 4.4 999.1 12.6
2014-Oct-27 10:00N 50°44' W 137°33'4 1.5 1001.1 12.6
2014-Oct-27 07:00N 50°40' W 137°30'0 0.0 1006.1 12.6
2014-Oct-27 06:00N 50°40' W 137°30'0 0.0 1007.4 12.6
2014-Oct-27 05:00N 50°40' W 137°30'0 0.0 1008.7 12.6
2014-Oct-27 04:00N 50°40' W 137°30'1 0.7 1009.8 12.7
2014-Oct-27 03:00N 50°40' W 137°29'2 0.5 1010.7 12.7
2014-Oct-27 00:00N 50°39' W 137°29'1 1.0 1013.3 12.7
2014-Oct-26 23:00N 50°39' W 137°27'0 0.0 1014.0 12.7
2014-Oct-26 22:00N 50°39' W 137°27'0 0.2 1014.5 12.7
2014-Oct-26 21:00N 50°39' W 137°27'1 0.8 1015.3 12.7
2014-Oct-26 20:00N 50°39' W 137°28'1 1.1 1015.9 12.7
2014-Oct-26 19:00N 50°39' W 137°30'0 0.2 1016.0 12.7
2014-Oct-26 17:00N 50°39' W 137°30'0 0.0 1016.5 12.7
2014-Oct-26 16:00N 50°39' W 137°30'1 1.4 1016.4 12.7
2014-Oct-26 15:00N 50°37' W 137°31'1 1.4 1016.1 12.7
2014-Oct-26 14:00N 50°38' W 137°30'2 1.6 1016.0 12.7
2014-Oct-26 13:00N 50°37' W 137°31'1 0.5 1015.8 12.7
2014-Oct-26 12:00N 50°38' W 137°31'2 1.9 1015.4 12.7
2014-Oct-26 11:00N 50°39' W 137°32'2 1.9 1015.5 12.7
2014-Oct-26 10:00N 50°38' W 137°31'2 1.0 1015.1 12.7
2014-Oct-26 08:00N 50°39' W 137°32'0 0.0 1014.3 12.7
2014-Oct-26 07:00N 50°39' W 137°32'0 0.0 1013.6 12.7
2014-Oct-26 06:00N 50°39' W 137°32'1 1.0 1013.0 12.7
2014-Oct-26 05:00N 50°40' W 137°32'0 0.0 1012.4 12.7
2014-Oct-26 04:00N 50°40' W 137°32'0 0.1 1011.8 12.8
2014-Oct-26 03:00N 50°40' W 137°32'2 1.7 1011.1 12.7
2014-Oct-26 02:00N 50°42' W 137°33'0 0.0 1010.2 12.7
2014-Oct-26 01:00N 50°42' W 137°33'1 0.8 1009.5 12.7
2014-Oct-26 00:00N 50°41' W 137°34'1 0.7 1009.0 12.7
2014-Oct-25 23:00N 50°41' W 137°34'1 0.3 1008.5 12.7
2014-Oct-25 21:00N 50°41' W 137°34'1 0.5 1008.0 12.7
2014-Oct-25 20:00N 50°42' W 137°34'1 0.6 1007.8 12.7
2014-Oct-25 19:00N 50°42' W 137°33'0 0.0 1007.5 12.6
2014-Oct-25 18:00N 50°42' W 137°33'0 0.0 1007.5 12.6
2014-Oct-25 17:00N 50°42' W 137°33'2 1.5 1007.3 12.5
2014-Oct-25 16:00N 50°42' W 137°35'1 1.2 1007.4 12.5
2014-Oct-25 15:00N 50°44' W 137°34'1 1.0 1007.2 12.6
2014-Oct-25 14:00N 50°44' W 137°33'2 1.9 1007.2 12.6
2014-Oct-25 13:00N 50°45' W 137°36'0 0.0 1007.4 12.6
2014-Oct-25 12:00N 50°45' W 137°36'2 1.9 1007.7 12.6
2014-Oct-25 11:00N 50°44' W 137°38'0 0.0 1008.1 12.6
2014-Oct-25 08:00N 50°44' W 137°38'0 0.0 1009.4 12.7
2014-Oct-25 05:00N 50°44' W 137°38'0 0.0 1010.1 12.7
2014-Oct-25 04:00N 50°44' W 137°38'1 0.4 1010.2 12.7
2014-Oct-25 02:00N 50°45' W 137°38'0 0.3 1009.9 12.7
2014-Oct-25 01:00N 50°45' W 137°38'2 1.0 1009.7 12.7
2014-Oct-24 23:00N 50°47' W 137°39'2 0.5 1009.5 12.7
2014-Oct-24 19:00N 50°48' W 137°42'0 0.0 1009.1 12.7
2014-Oct-24 18:00N 50°48' W 137°42'0 0.0 1008.8 12.7
2014-Oct-24 17:00N 50°48' W 137°42'1 0.8 1008.2 12.7
2014-Oct-24 16:00N 50°47' W 137°43'0 0.1 1007.6 12.7
2014-Oct-24 15:00N 50°47' W 137°43'0 0.4 1007.0 12.7
2014-Oct-24 14:00N 50°47' W 137°44'0 0.2 1006.5 12.6
2014-Oct-24 13:00N 50°47' W 137°43'2 1.2 1005.9 12.7
2014-Oct-24 11:00N 50°49' W 137°45'0 0.0 1004.6 12.7
2014-Oct-24 09:00N 50°49' W 137°45'0 0.0 1003.1 12.7
2014-Oct-24 07:00N 50°49' W 137°45'0 0.0 1001.9 12.7
2014-Oct-24 06:00N 50°49' W 137°45'0 0.0 1001.2 12.7
2014-Oct-24 05:00N 50°49' W 137°45'0 0.0 1000.4 12.7
2014-Oct-24 04:00N 50°49' W 137°45'0 0.5 999.4 12.7
2014-Oct-24 03:00N 50°49' W 137°45'0 0.0 997.8 12.7
2014-Oct-24 02:00N 50°49' W 137°45'0 0.4 996.0 12.7
2014-Oct-24 01:00N 50°49' W 137°45'1 0.7 993.4 12.7
2014-Oct-23 23:00N 50°48' W 137°47'0 0.0 991.8 12.7
2014-Oct-23 22:00N 50°48' W 137°47'1 0.6 991.9 12.7
2014-Oct-23 20:00N 50°46' W 137°47'1 0.2 995.5 12.7
2014-Oct-23 17:00N 50°47' W 137°48'1 0.6 995.7 12.8
2014-Oct-23 15:00N 50°47' W 137°49'3 1.5 995.5 12.8
2014-Oct-23 13:00N 50°47' W 137°54'4 1.8 994.9 12.8
2014-Oct-23 11:00N 50°45' W 137°50'1 1.5 994.2 12.8
2014-Oct-23 10:00N 50°46' W 137°51'0 0.0 994.0 12.8
2014-Oct-23 07:00N 50°46' W 137°51'0 0.0 993.0 12.9
2014-Oct-23 06:00N 50°46' W 137°51'0 0.2 992.8 12.9
2014-Oct-23 05:00N 50°46' W 137°51'0 0.0 992.5 12.9
2014-Oct-23 04:00N 50°46' W 137°51'0 0.0 992.2 12.9
2014-Oct-23 03:00N 50°46' W 137°51'1 0.6 992.1 12.9
2014-Oct-23 01:00N 50°47' W 137°53'1 0.5 991.3 12.9
2014-Oct-22 23:00N 50°48' W 137°54'3 1.1 991.0 12.9
2014-Oct-22 20:00N 50°45' W 137°57'0 0.0 991.3 12.8
2014-Oct-22 19:00N 50°45' W 137°57'0 0.0 991.3 12.8
2014-Oct-22 17:00N 50°45' W 137°57'0 0.0 991.0 12.9
2014-Oct-22 16:00N 50°45' W 137°57'0 0.4 990.4 12.9
2014-Oct-22 15:00N 50°45' W 137°56'3 3.5 990.5 12.9
2014-Oct-22 14:00N 50°47' W 137°59'0 0.0 990.8 12.9
2014-Oct-22 13:00N 50°47' W 137°59'0 0.0 990.9 12.9
2014-Oct-22 12:00N 50°47' W 137°59'0 0.0 991.2 12.9
2014-Oct-22 11:00N 50°47' W 137°59'0 0.0 991.0 12.9
2014-Oct-22 10:00N 50°47' W 137°59'0 0.0 991.0 12.9
2014-Oct-22 07:00N 50°47' W 137°59'2 2.4 990.1 12.9
2014-Oct-22 06:00N 50°46' W 138°03'2 0.9 989.7 12.9
2014-Oct-22 04:00N 50°44' W 138°02'0 0.0 988.8 12.9
2014-Oct-22 03:00N 50°44' W 138°02'0 0.0 988.4 12.9
2014-Oct-22 02:00N 50°44' W 138°02'0 0.4 988.0 13.0
2014-Oct-22 01:00N 50°45' W 138°02'0 0.1 987.3 13.0
2014-Oct-22 00:00N 50°45' W 138°02'4 2.0 986.6 13.1
2014-Oct-21 22:00N 50°48' W 138°07'7 2.4 985.1 13.0
2014-Oct-21 19:00N 50°48' W 138°18'   982.4 13.1
Track history (hours):
 
Tides and Currents Weather Stations Pressure Air Temp Water Temp Dewpoint Dewpoint Depression Visibility Wind Speed Wind Dir Waves Ship Positions

Drifting buoy 46611

Last reported at 2014-Oct-31 17:00 UTC. Time now 2014-Oct-31 23:55 UTC.
Position N 50°45' W 137°29'.

Barometer 1008.7 mb
Water temperature 12.6 ° C

Date/timePositionNaut miles runAvg speedWind from/ knotsBaromVisibWave heightAir tempDewpointWater temp
2014-Oct-31 17:00N 50°45' W 137°29'1 1.5 1008.7 12.6
2014-Oct-31 16:00N 50°44' W 137°31'1 1.3 1008.3 12.6
2014-Oct-31 15:00N 50°45' W 137°29'0 0.2 1008.4 12.6
2014-Oct-31 14:00N 50°45' W 137°29'0 0.1 1008.3 12.6
2014-Oct-31 12:00N 50°45' W 137°29'0 0.0 1007.9 12.7
2014-Oct-31 11:00N 50°45' W 137°29'1 0.9 1007.9 12.7
2014-Oct-31 10:00N 50°46' W 137°30'0 0.0 1007.7 12.7
2014-Oct-31 08:00N 50°46' W 137°30'1 1.0 1006.9 12.7
2014-Oct-31 07:00N 50°46' W 137°31'0 0.0 1006.5 12.7
2014-Oct-31 06:00N 50°46' W 137°31'0 0.4 1006.3 12.7
2014-Oct-31 05:00N 50°45' W 137°31'0 0.0 1005.7 12.7
2014-Oct-31 04:00N 50°45' W 137°31'0 0.4 1005.3 12.7
2014-Oct-31 03:00N 50°45' W 137°30'0 0.0 1004.5 12.7
2014-Oct-31 02:00N 50°45' W 137°30'0 0.2 1003.8 12.7
2014-Oct-31 01:00N 50°45' W 137°31'0 0.1 1003.2 12.7
2014-Oct-31 00:00N 50°45' W 137°31'2 1.5 1002.4 12.7
2014-Oct-30 23:00N 50°46' W 137°29'0 0.0 1002.0 12.7
2014-Oct-30 22:00N 50°46' W 137°29'0 0.3 1001.7 12.7
2014-Oct-30 21:00N 50°46' W 137°29'0 0.2 1001.6 12.7
2014-Oct-30 20:00N 50°46' W 137°29'0 0.2 1001.2 12.6
2014-Oct-30 19:00N 50°46' W 137°30'1 1.1 1001.0 12.6
2014-Oct-30 18:00N 50°46' W 137°31'0 0.0 1000.6 12.5
2014-Oct-30 17:00N 50°46' W 137°31'0 0.5 1000.1 12.5
2014-Oct-30 16:00N 50°46' W 137°31'0 0.2 1000.0 12.5
2014-Oct-30 14:00N 50°46' W 137°30'0 0.1 1000.0 12.5
2014-Oct-30 13:00N 50°46' W 137°30'0 0.0 1000.3 12.5
2014-Oct-30 12:00N 50°46' W 137°30'1 0.3 1000.7 12.5
2014-Oct-30 10:00N 50°46' W 137°31'0 0.0 1001.5 12.5
2014-Oct-30 08:00N 50°46' W 137°31'1 1.3 1002.7 12.4
2014-Oct-30 07:00N 50°47' W 137°32'1 0.6 1003.1 12.4
2014-Oct-30 06:00N 50°47' W 137°33'0 0.0 1003.1 12.5
2014-Oct-30 05:00N 50°47' W 137°33'0 0.0 1003.1 12.5
2014-Oct-30 04:00N 50°47' W 137°33'3 2.6 1003.2 12.5
2014-Oct-30 03:00N 50°46' W 137°30'0 0.4 1003.4 12.5
2014-Oct-30 02:00N 50°46' W 137°30'1 0.3 1003.5 12.5
2014-Oct-30 00:00N 50°46' W 137°28'1 1.2 1003.9 12.5
2014-Oct-29 23:00N 50°46' W 137°30'0 0.4 1004.4 12.5
2014-Oct-29 22:00N 50°46' W 137°30'0 0.5 1004.4 12.5
2014-Oct-29 21:00N 50°46' W 137°31'1 0.6 1005.2 12.5
2014-Oct-29 20:00N 50°45' W 137°30'1 1.2 1005.1 12.5
2014-Oct-29 19:00N 50°45' W 137°32'0 0.2 1005.1 12.5
2014-Oct-29 17:00N 50°45' W 137°31'1 0.6 1005.1 12.5
2014-Oct-29 16:00N 50°44' W 137°32'1 1.1 1004.9 12.5
2014-Oct-29 15:00N 50°44' W 137°30'1 1.0 1005.1 12.5
2014-Oct-29 14:00N 50°44' W 137°32'0 0.2 1005.6 12.5
2014-Oct-29 12:00N 50°44' W 137°32'1 0.7 1005.6 12.5
2014-Oct-29 11:00N 50°44' W 137°32'0 0.0 1005.9 12.5
2014-Oct-29 07:00N 50°44' W 137°32'0 0.2 1006.1 12.6
2014-Oct-29 06:00N 50°44' W 137°33'0 0.3 1006.0 12.6
2014-Oct-29 05:00N 50°43' W 137°33'2 2.1 1005.7 12.6
2014-Oct-29 04:00N 50°43' W 137°36'0 0.0 1005.2 12.6
2014-Oct-29 02:00N 50°43' W 137°36'0 0.0 1003.9 12.6
2014-Oct-29 01:00N 50°43' W 137°36'1 1.2 1003.4 12.6
2014-Oct-29 00:00N 50°42' W 137°35'1 0.5 1003.0 12.6
2014-Oct-28 22:00N 50°43' W 137°35'1 0.9 1002.0 12.7
2014-Oct-28 21:00N 50°43' W 137°36'2 0.4 1001.2 12.7
2014-Oct-28 16:00N 50°44' W 137°36'0 0.5 996.5 12.6
2014-Oct-28 15:00N 50°45' W 137°36'1 1.3 995.4 12.6
2014-Oct-28 14:00N 50°45' W 137°37'1 0.4 994.4 12.6
2014-Oct-28 12:00N 50°46' W 137°36'1 0.6 992.7 12.5
2014-Oct-28 10:00N 50°46' W 137°38'0 0.0 991.7 12.5
2014-Oct-28 08:00N 50°46' W 137°38'0 0.4 990.4 12.4
2014-Oct-28 07:00N 50°46' W 137°38'1 1.4 990.1 12.5
2014-Oct-28 06:00N 50°47' W 137°36'0 0.0 989.8 12.5
2014-Oct-28 04:00N 50°47' W 137°36'1 0.3 989.2 12.5
2014-Oct-28 02:00N 50°46' W 137°37'1 0.8 988.5 12.5
2014-Oct-28 01:00N 50°47' W 137°36'0 0.2 988.7 12.5
2014-Oct-28 00:00N 50°47' W 137°35'0 0.4 988.9 12.5
2014-Oct-27 23:00N 50°47' W 137°35'0 0.0 989.5 12.5
2014-Oct-27 22:00N 50°47' W 137°35'1 1.0 990.0 12.5
2014-Oct-27 21:00N 50°47' W 137°36'1 0.6 990.7 12.5
2014-Oct-27 19:00N 50°46' W 137°36'0 0.0 991.6 12.5
2014-Oct-27 18:00N 50°46' W 137°36'0 0.0 991.8 12.5
2014-Oct-27 17:00N 50°46' W 137°36'1 0.7 992.1 12.5
2014-Oct-27 16:00N 50°45' W 137°36'0 0.1 992.1 12.5
2014-Oct-27 15:00N 50°45' W 137°36'1 0.5 992.3 12.5
2014-Oct-27 14:00N 50°45' W 137°35'2 1.5 993.4 12.5
2014-Oct-27 13:00N 50°44' W 137°33'0 0.3 994.9 12.6
2014-Oct-27 12:00N 50°44' W 137°33'4 4.4 996.9 12.6
2014-Oct-27 11:00N 50°40' W 137°30'4 4.4 999.1 12.6
2014-Oct-27 10:00N 50°44' W 137°33'4 1.5 1001.1 12.6
2014-Oct-27 07:00N 50°40' W 137°30'0 0.0 1006.1 12.6
2014-Oct-27 06:00N 50°40' W 137°30'0 0.0 1007.4 12.6
2014-Oct-27 05:00N 50°40' W 137°30'0 0.0 1008.7 12.6
2014-Oct-27 04:00N 50°40' W 137°30'1 0.7 1009.8 12.7
2014-Oct-27 03:00N 50°40' W 137°29'2 0.5 1010.7 12.7
2014-Oct-27 00:00N 50°39' W 137°29'1 1.0 1013.3 12.7
2014-Oct-26 23:00N 50°39' W 137°27'0 0.0 1014.0 12.7
2014-Oct-26 22:00N 50°39' W 137°27'0 0.2 1014.5 12.7
2014-Oct-26 21:00N 50°39' W 137°27'1 0.8 1015.3 12.7
2014-Oct-26 20:00N 50°39' W 137°28'1 1.1 1015.9 12.7
2014-Oct-26 19:00N 50°39' W 137°30'0 0.2 1016.0 12.7
2014-Oct-26 17:00N 50°39' W 137°30'0 0.0 1016.5 12.7
2014-Oct-26 16:00N 50°39' W 137°30'1 1.4 1016.4 12.7
2014-Oct-26 15:00N 50°37' W 137°31'1 1.4 1016.1 12.7
2014-Oct-26 14:00N 50°38' W 137°30'2 1.6 1016.0 12.7
2014-Oct-26 13:00N 50°37' W 137°31'1 0.5 1015.8 12.7
2014-Oct-26 12:00N 50°38' W 137°31'2 1.9 1015.4 12.7
2014-Oct-26 11:00N 50°39' W 137°32'2 1.9 1015.5 12.7
2014-Oct-26 10:00N 50°38' W 137°31'2 1.0 1015.1 12.7
2014-Oct-26 08:00N 50°39' W 137°32'0 0.0 1014.3 12.7
2014-Oct-26 07:00N 50°39' W 137°32'0 0.0 1013.6 12.7
2014-Oct-26 06:00N 50°39' W 137°32'1 1.0 1013.0 12.7
2014-Oct-26 05:00N 50°40' W 137°32'0 0.0 1012.4 12.7
2014-Oct-26 04:00N 50°40' W 137°32'0 0.1 1011.8 12.8
2014-Oct-26 03:00N 50°40' W 137°32'2 1.7 1011.1 12.7
2014-Oct-26 02:00N 50°42' W 137°33'0 0.0 1010.2 12.7
2014-Oct-26 01:00N 50°42' W 137°33'1 0.8 1009.5 12.7
2014-Oct-26 00:00N 50°41' W 137°34'1 0.7 1009.0 12.7
2014-Oct-25 23:00N 50°41' W 137°34'1 0.3 1008.5 12.7
2014-Oct-25 21:00N 50°41' W 137°34'1 0.5 1008.0 12.7
2014-Oct-25 20:00N 50°42' W 137°34'1 0.6 1007.8 12.7
2014-Oct-25 19:00N 50°42' W 137°33'0 0.0 1007.5 12.6
2014-Oct-25 18:00N 50°42' W 137°33'0 0.0 1007.5 12.6
2014-Oct-25 17:00N 50°42' W 137°33'2 1.5 1007.3 12.5
2014-Oct-25 16:00N 50°42' W 137°35'1 1.2 1007.4 12.5
2014-Oct-25 15:00N 50°44' W 137°34'1 1.0 1007.2 12.6
2014-Oct-25 14:00N 50°44' W 137°33'2 1.9 1007.2 12.6
2014-Oct-25 13:00N 50°45' W 137°36'0 0.0 1007.4 12.6
2014-Oct-25 12:00N 50°45' W 137°36'2 1.9 1007.7 12.6
2014-Oct-25 11:00N 50°44' W 137°38'0 0.0 1008.1 12.6
2014-Oct-25 08:00N 50°44' W 137°38'0 0.0 1009.4 12.7
2014-Oct-25 05:00N 50°44' W 137°38'0 0.0 1010.1 12.7
2014-Oct-25 04:00N 50°44' W 137°38'1 0.4 1010.2 12.7
2014-Oct-25 02:00N 50°45' W 137°38'0 0.3 1009.9 12.7
2014-Oct-25 01:00N 50°45' W 137°38'2 1.0 1009.7 12.7
2014-Oct-24 23:00N 50°47' W 137°39'2 0.5 1009.5 12.7
2014-Oct-24 19:00N 50°48' W 137°42'0 0.0 1009.1 12.7
2014-Oct-24 18:00N 50°48' W 137°42'0 0.0 1008.8 12.7
2014-Oct-24 17:00N 50°48' W 137°42'1 0.8 1008.2 12.7
2014-Oct-24 16:00N 50°47' W 137°43'0 0.1 1007.6 12.7
2014-Oct-24 15:00N 50°47' W 137°43'0 0.4 1007.0 12.7
2014-Oct-24 14:00N 50°47' W 137°44'0 0.2 1006.5 12.6
2014-Oct-24 13:00N 50°47' W 137°43'2 1.2 1005.9 12.7
2014-Oct-24 11:00N 50°49' W 137°45'0 0.0 1004.6 12.7
2014-Oct-24 09:00N 50°49' W 137°45'0 0.0 1003.1 12.7
2014-Oct-24 07:00N 50°49' W 137°45'0 0.0 1001.9 12.7
2014-Oct-24 06:00N 50°49' W 137°45'0 0.0 1001.2 12.7
2014-Oct-24 05:00N 50°49' W 137°45'0 0.0 1000.4 12.7
2014-Oct-24 04:00N 50°49' W 137°45'0 0.5 999.4 12.7
2014-Oct-24 03:00N 50°49' W 137°45'0 0.0 997.8 12.7
2014-Oct-24 02:00N 50°49' W 137°45'0 0.4 996.0 12.7
2014-Oct-24 01:00N 50°49' W 137°45'1 0.7 993.4 12.7
2014-Oct-23 23:00N 50°48' W 137°47'0 0.0 991.8 12.7
2014-Oct-23 22:00N 50°48' W 137°47'1 0.6 991.9 12.7
2014-Oct-23 20:00N 50°46' W 137°47'1 0.2 995.5 12.7
2014-Oct-23 17:00N 50°47' W 137°48'1 0.6 995.7 12.8
2014-Oct-23 15:00N 50°47' W 137°49'3 1.5 995.5 12.8
2014-Oct-23 13:00N 50°47' W 137°54'4 1.8 994.9 12.8
2014-Oct-23 11:00N 50°45' W 137°50'1 1.5 994.2 12.8
2014-Oct-23 10:00N 50°46' W 137°51'0 0.0 994.0 12.8
2014-Oct-23 07:00N 50°46' W 137°51'0 0.0 993.0 12.9
2014-Oct-23 06:00N 50°46' W 137°51'0 0.2 992.8 12.9
2014-Oct-23 05:00N 50°46' W 137°51'0 0.0 992.5 12.9
2014-Oct-23 04:00N 50°46' W 137°51'0 0.0 992.2 12.9
2014-Oct-23 03:00N 50°46' W 137°51'1 0.6 992.1 12.9
2014-Oct-23 01:00N 50°47' W 137°53'1 0.5 991.3 12.9
2014-Oct-22 23:00N 50°48' W 137°54'3 1.1 991.0 12.9
2014-Oct-22 20:00N 50°45' W 137°57'0 0.0 991.3 12.8
2014-Oct-22 19:00N 50°45' W 137°57'0 0.0 991.3 12.8
2014-Oct-22 17:00N 50°45' W 137°57'0 0.0 991.0 12.9
2014-Oct-22 16:00N 50°45' W 137°57'0 0.4 990.4 12.9
2014-Oct-22 15:00N 50°45' W 137°56'3 3.5 990.5 12.9
2014-Oct-22 14:00N 50°47' W 137°59'0 0.0 990.8 12.9
2014-Oct-22 13:00N 50°47' W 137°59'0 0.0 990.9 12.9
2014-Oct-22 12:00N 50°47' W 137°59'0 0.0 991.2 12.9
2014-Oct-22 11:00N 50°47' W 137°59'0 0.0 991.0 12.9
2014-Oct-22 10:00N 50°47' W 137°59'0 0.0 991.0 12.9
2014-Oct-22 07:00N 50°47' W 137°59'2 2.4 990.1 12.9
2014-Oct-22 06:00N 50°46' W 138°03'2 0.9 989.7 12.9
2014-Oct-22 04:00N 50°44' W 138°02'0 0.0 988.8 12.9
2014-Oct-22 03:00N 50°44' W 138°02'0 0.0 988.4 12.9
2014-Oct-22 02:00N 50°44' W 138°02'0 0.4 988.0 13.0
2014-Oct-22 01:00N 50°45' W 138°02'0 0.1 987.3 13.0
2014-Oct-22 00:00N 50°45' W 138°02'4 2.0 986.6 13.1
2014-Oct-21 22:00N 50°48' W 138°07'7 2.4 985.1 13.0
2014-Oct-21 19:00N 50°48' W 138°18'   982.4 13.1

Dump ship's entire track history